Last 24 Hours

Thomas Mountain

10 Minute Data | America/Los_Angeles
as of 9/3/26 2:57 PM PDT
Date & Time Temp (°F) Dew Pt (°F) RH (%) Wind Spd (mph) Wind Dir (°) Wind Gust (mph) Wind Gst Dir (°) Daily Max Temp (°F) Daily Min Temp (°F)
9/3/26 - 1450 72.3 36.5 27 15.0 WSW | 244 25.5 WSW | 241 74.2 57.3
9/3/26 - 1440 72.8 36.5 27 14.0 WSW | 245 22.9 WSW | 243 74.2 57.3
9/3/26 - 1430 72.5 36.2 27 12.9 WSW | 245 24.4 WSW | 242 73.4 57.3
9/3/26 - 1420 71.4 34.8 26 13.2 WSW | 251 21.5 WSW | 251 73.2 57.3
9/3/26 - 1410 72.1 34.8 25 13.2 WSW | 251 25.5 WSW | 248 73.2 57.3
9/3/26 - 1400 71.2 34.0 25 11.4 WSW | 255 20.1 W | 268 73.2 57.3
9/3/26 - 1350 71.1 33.6 25 13.1 WSW | 241 21.3 SW | 233 73.2 57.3
9/3/26 - 1340 71.3 33.7 25 12.1 WSW | 253 21.2 WSW | 247 73.2 57.3
9/3/26 - 1330 71.1 33.4 25 13.9 WSW | 247 22.8 W | 266 73.2 57.3
9/3/26 - 1320 71.5 33.5 25 13.4 WSW | 238 22.5 SW | 232 73.2 57.3
9/3/26 - 1310 71.1 33.0 24 13.3 WSW | 242 23.4 SW | 224 73.2 57.3
9/3/26 - 1300 71.3 32.7 24 11.2 WSW | 245 20.9 WSW | 248 73.2 57.3
9/3/26 - 1250 71.2 31.7 23 12.2 WSW | 241 24.1 SW | 235 73.2 57.3
9/3/26 - 1240 71.4 32.5 24 13.6 WSW | 253 21.6 SW | 234 73.2 57.3
9/3/26 - 1230 71.7 32.5 24 12.5 WSW | 244 21.8 SW | 225 73.2 57.3
9/3/26 - 1220 71.2 31.9 23 13.9 WSW | 242 22.2 WSW | 240 72.6 57.3
9/3/26 - 1210 71.3 30.7 22 13.8 WSW | 244 23.2 SW | 230 72.2 57.3
9/3/26 - 1200 70.9 29.6 21 13.2 SW | 233 20.1 SW | 229 71.8 57.3
9/3/26 - 1150 70.4 28.1 21 14.1 WSW | 242 22.4 W | 264 71.2 57.3
9/3/26 - 1140 70.5 27.1 20 14.4 WSW | 243 19.6 WSW | 237 71.2 57.3
9/3/26 - 1130 70.3 26.8 20 13.5 WSW | 244 23.7 WSW | 241 71.2 57.3
9/3/26 - 1120 69.3 26.2 20 13.2 WSW | 238 22.2 WSW | 246 70.6 57.3
9/3/26 - 1110 69.2 25.2 19 13.4 WSW | 240 20.1 SW | 235 70.2 57.3
9/3/26 - 1100 69.1 24.3 18 11.9 WSW | 242 18.8 WSW | 241 70.2 57.3
9/3/26 - 1050 69.0 23.2 18 11.3 WSW | 242 17.8 WSW | 248 69.8 57.3
9/3/26 - 1040 68.2 22.6 18 8.6 WSW | 237 19.6 WSW | 243 68.7 57.3
9/3/26 - 1030 67.4 22.0 18 10.6 WSW | 242 20.0 WSW | 242 67.8 57.3
9/3/26 - 1020 67.1 21.9 18 10.1 WSW | 244 16.4 W | 261 67.7 57.3
9/3/26 - 1010 66.8 22.2 18 10.0 WSW | 241 15.1 SW | 221 67.2 57.3
9/3/26 - 1000 66.2 21.8 18 9.8 WSW | 239 14.8 WSW | 250 66.8 57.3
9/3/26 - 0950 64.6 20.8 19 9.1 WSW | 238 14.7 SW | 231 65.4 57.3
9/3/26 - 0940 63.9 18.5 17 8.8 WSW | 242 12.6 WSW | 248 64.4 57.3
9/3/26 - 0930 63.3 16.8 16 8.9 WSW | 247 12.1 WSW | 241 63.9 57.3
9/3/26 - 0920 63.3 16.4 16 7.9 WSW | 237 11.3 SW | 232 63.9 57.3
9/3/26 - 0910 62.3 16.5 17 7.3 WSW | 241 11.4 SW | 226 62.8 57.3
9/3/26 - 0900 61.6 19.3 19 5.9 WSW | 242 9.7 WSW | 250 62.8 57.3
9/3/26 - 0850 61.2 20.8 21 6.5 WSW | 245 8.8 WSW | 250 62.8 57.3
9/3/26 - 0840 60.8 21.2 22 5.1 WSW | 241 7.9 WSW | 258 62.8 57.3
9/3/26 - 0830 60.9 22.2 22 4.0 WSW | 237 6.6 SW | 233 62.8 57.3
9/3/26 - 0820 60.5 23.0 23 3.2 WSW | 241 4.8 SW | 233 62.8 57.3
9/3/26 - 0810 60.1 24.0 25 3.7 SW | 235 5.6 WSW | 253 62.8 57.3
9/3/26 - 0800 59.9 24.0 25 3.2 SW | 229 5.0 SW | 232 62.8 57.3
9/3/26 - 0750 60.3 23.4 24 2.7 SSW | 208 5.3 SSW | 212 62.8 57.3
9/3/26 - 0740 60.7 23.1 23 2.5 SSW | 208 3.9 SSW | 209 62.8 57.3
9/3/26 - 0730 62.3 21.0 20 1.8 S | 178 3.7 SSW | 201 62.8 57.3
9/3/26 - 0720 61.4 20.1 20 1.1 SSE | 156 2.6 SSW | 196 62.3 57.3
9/3/26 - 0710 61.0 19.1 20 1.0 S | 180 2.2 SSE | 166 62.3 57.3
9/3/26 - 0700 60.9 16.2 17 0.9 WSW | 244 2.8 W | 276 62.3 57.3
9/3/26 - 0650 60.7 15.8 17 1.5 WSW | 248 4.9 W | 262 62.3 57.3
9/3/26 - 0640 59.5 19.1 21 1.6 NNE | 21 2.8 NE | 44 62.3 57.3
9/3/26 - 0630 59.7 21.2 22 2.2 NE | 35 4.2 N | 5 62.3 57.3
9/3/26 - 0620 59.8 21.4 22 3.5 N | 1 4.9 N | 352 62.3 57.3
9/3/26 - 0610 59.0 22.5 24 4.0 N | 358 6.1 N | 7 62.3 57.3
9/3/26 - 0600 59.1 23.0 25 5.8 N | 4 9.1 NNE | 16 62.3 57.3
9/3/26 - 0550 58.7 21.7 24 6.8 N | 6 8.8 N | 7 62.3 57.3
9/3/26 - 0540 57.8 19.4 22 5.6 N | 11 7.6 NNE | 20 62.3 57.3
9/3/26 - 0530 58.1 18.6 21 5.1 NNE | 18 7.5 NNE | 19 62.3 57.3
9/3/26 - 0520 57.8 18.0 21 5.0 NNE | 25 8.2 NNE | 26 62.3 57.3
9/3/26 - 0510 58.1 18.4 21 5.5 NNE | 20 8.0 N | 9 62.3 57.9
9/3/26 - 0500 58.7 18.2 20 5.2 NNE | 22 7.1 NNE | 20 62.3 58.1
9/3/26 - 0450 58.7 17.6 20 4.8 NNE | 26 6.9 NNE | 21 62.3 58.4
9/3/26 - 0440 58.9 16.1 19 5.4 NNE | 18 8.0 NNE | 26 62.3 58.7
9/3/26 - 0430 60.0 18.8 20 3.9 NNE | 24 6.6 NNW | 342 62.3 58.8
9/3/26 - 0420 60.4 17.5 19 2.2 NNE | 14 5.3 NNW | 342 62.3 58.8
9/3/26 - 0410 59.4 16.1 18 2.4 ENE | 59 4.7 NE | 52 62.3 58.8
9/3/26 - 0400 60.0 16.2 18 1.4 ENE | 77 2.6 E | 85 62.3 59.5
9/3/26 - 0350 60.5 17.5 19 0.7 ESE | 103 2.1 E | 87 62.3 60.4
9/3/26 - 0340 60.7 17.7 19 1.6 NNE | 32 4.4 ENE | 70 62.3 60.4
9/3/26 - 0330 60.9 17.3 18 3.5 WNW | 303 9.0 WNW | 289 62.3 60.8
9/3/26 - 0320 61.3 14.7 16 3.7 W | 277 8.1 WNW | 283 62.3 60.8
9/3/26 - 0310 61.6 12.4 14 5.0 W | 274 8.8 WNW | 302 62.3 60.8
9/3/26 - 0300 61.5 6.4 11 5.7 W | 278 11.8 W | 264 62.3 60.8
9/3/26 - 0250 61.4 1.3 9 3.7 W | 276 8.8 W | 260 62.3 60.8
9/3/26 - 0240 61.5 -2.4 7 5.2 W | 272 12.0 W | 264 62.3 60.8
9/3/26 - 0230 62.0 -5.2 6 5.9 W | 268 13.9 W | 271 62.3 60.8
9/3/26 - 0220 61.8 -7.8 6 4.4 WNW | 282 9.1 WSW | 243 62.2 60.8
9/3/26 - 0210 62.0 -9.2 5 4.8 WNW | 294 11.0 WNW | 293 62.2 60.8
9/3/26 - 0200 62.0 -6.6 6 6.5 WNW | 284 10.9 W | 264 62.1 60.8
9/3/26 - 0150 61.6 -4.7 6 4.6 WNW | 300 8.3 WNW | 297 61.9 60.8
9/3/26 - 0140 61.7 -3.9 7 4.7 WNW | 295 9.6 WNW | 284 61.9 60.8
9/3/26 - 0130 61.1 -2.9 7 2.3 NW | 313 5.8 W | 264 61.8 60.8
9/3/26 - 0120 61.4 0.9 9 4.2 WNW | 301 8.5 WNW | 289 61.8 61.0
9/3/26 - 0110 61.4 5.1 10 4.7 WNW | 287 10.1 W | 270 61.6 61.3
9/3/26 - 0100 61.4 10.3 13 4.4 WNW | 286 8.6 WNW | 286 76.8 56.4
9/3/26 - 0050 61.1 15.3 17 4.7 WNW | 284 9.9 W | 268 76.8 56.4
9/3/26 - 0040 61.3 17.8 18 4.7 WNW | 290 8.9 WNW | 285 76.8 56.4
9/3/26 - 0030 61.3 20.6 21 4.3 WNW | 302 8.3 NW | 314 76.8 56.4
9/3/26 - 0020 61.2 24.7 25 5.4 NW | 312 10.5 WNW | 297 76.8 56.4
9/3/26 - 0010 61.0 33.0 35 5.3 NW | 318 9.4 NW | 324 76.8 56.4
9/3/26 - 0000 60.8 37.9 42 4.3 NW | 304 10.2 W | 273 76.8 56.4
9/2/26 - 2350 61.2 38.1 42 5.4 WNW | 288 10.9 W | 281 76.8 56.4
9/2/26 - 2340 61.1 37.3 41 4.2 WNW | 293 8.1 WNW | 285 76.8 56.4
9/2/26 - 2330 61.2 35.8 39 3.7 WNW | 301 7.7 WNW | 287 76.8 56.4
9/2/26 - 2320 61.5 36.1 39 4.2 WNW | 291 7.8 WNW | 286 76.8 56.4
9/2/26 - 2310 61.5 36.3 39 4.6 WNW | 301 9.5 NW | 311 76.8 56.4
9/2/26 - 2300 61.4 35.6 38 3.5 NW | 310 5.3 NW | 314 76.8 56.4
9/2/26 - 2250 61.5 34.4 36 3.4 NW | 306 5.3 NW | 314 76.8 56.4
9/2/26 - 2240 59.9 32.4 35 4.8 NNW | 332 7.2 N | 2 76.8 56.4
9/2/26 - 2230 58.7 30.6 34 7.0 N | 358 9.0 N | 0 76.8 56.4
9/2/26 - 2220 57.7 29.8 34 7.6 N | 1 11.0 N | 0 76.8 56.4
9/2/26 - 2210 56.8 29.4 35 5.1 N | 4 7.9 NNE | 18 76.8 56.4
9/2/26 - 2200 59.3 27.4 29 4.8 N | 357 7.3 N | 352 76.8 57.5
9/2/26 - 2150 60.5 26.4 27 5.3 NNW | 338 7.3 N | 0 76.8 57.5
9/2/26 - 2140 58.4 28.8 32 6.1 NNW | 342 9.0 NW | 326 76.8 57.5
9/2/26 - 2130 57.8 31.9 37 7.8 N | 349 11.3 N | 353 76.8 57.5
9/2/26 - 2120 58.7 32.6 37 6.7 NNW | 344 9.0 N | 353 76.8 57.9
9/2/26 - 2110 61.9 25.7 25 5.5 NW | 313 11.4 W | 274 76.8 59.5
9/2/26 - 2100 62.2 27.4 26 6.0 WNW | 291 10.3 WNW | 300 76.8 59.5
9/2/26 - 2050 62.6 28.6 27 7.8 W | 281 12.4 WNW | 294 76.8 59.5
9/2/26 - 2040 62.7 29.3 28 8.6 W | 277 13.8 W | 272 76.8 59.5
9/2/26 - 2030 62.7 30.2 29 8.1 WNW | 282 13.1 W | 273 76.8 59.5
9/2/26 - 2020 62.9 31.1 30 6.8 WNW | 283 10.4 WNW | 294 76.8 59.5
9/2/26 - 2010 63.1 31.1 30 5.6 W | 272 8.9 W | 278 76.8 59.5
9/2/26 - 2000 63.7 30.8 29 5.2 W | 276 9.1 W | 262 76.8 59.5
9/2/26 - 1950 63.8 30.1 28 4.7 WNW | 286 6.5 WNW | 293 76.8 59.5
9/2/26 - 1940 64.1 29.8 27 4.6 W | 277 5.7 W | 281 76.8 59.5
9/2/26 - 1930 64.2 29.1 27 4.5 W | 277 6.1 W | 276 76.8 59.5
9/2/26 - 1920 64.8 29.3 26 6.7 WSW | 258 11.1 WSW | 258 76.8 59.5
9/2/26 - 1910 65.6 28.1 24 6.8 WSW | 256 14.0 WSW | 238 76.8 59.5
9/2/26 - 1900 66.5 27.3 23 6.9 W | 270 12.1 W | 269 76.8 59.5
9/2/26 - 1850 67.3 27.2 22 7.4 W | 259 12.6 WSW | 243 76.8 59.5
9/2/26 - 1840 68.1 27.1 21 6.2 W | 261 11.4 WSW | 257 76.8 59.5
9/2/26 - 1830 68.6 26.1 20 8.9 WSW | 248 15.8 WSW | 246 76.8 59.5
9/2/26 - 1820 69.1 23.2 17 10.1 WSW | 248 16.9 WSW | 247 76.8 59.5
9/2/26 - 1810 69.6 22.8 17 10.6 WSW | 246 16.2 WSW | 238 76.8 59.5
9/2/26 - 1800 70.0 22.6 17 9.4 WSW | 254 17.0 W | 260 76.8 59.5
9/2/26 - 1750 70.3 25.0 18 9.1 WSW | 257 17.0 SW | 219 76.8 59.5
9/2/26 - 1740 70.3 24.2 18 10.5 W | 274 17.5 W | 262 76.8 59.5
9/2/26 - 1730 70.8 25.8 18 10.3 W | 261 18.1 W | 259 76.8 59.5
9/2/26 - 1720 70.6 27.9 20 11.7 WSW | 257 20.8 W | 280 76.8 59.5
9/2/26 - 1710 71.1 28.9 21 13.5 WSW | 254 21.8 WSW | 252 76.8 59.5
9/2/26 - 1700 71.2 31.1 23 13.2 W | 259 21.0 W | 278 76.8 59.5
9/2/26 - 1650 71.2 30.5 22 14.5 WSW | 252 23.8 WSW | 254 76.8 59.5
9/2/26 - 1640 71.3 32.1 23 14.9 WSW | 250 23.8 W | 265 76.8 59.5
9/2/26 - 1630 71.7 29.1 21 15.2 WSW | 248 23.6 SW | 232 76.8 59.5
9/2/26 - 1620 72.1 29.4 20 13.1 WSW | 248 21.0 W | 269 76.8 59.5
9/2/26 - 1610 72.2 30.9 22 15.2 WSW | 248 23.7 WSW | 245 76.8 59.5
9/2/26 - 1600 72.6 31.6 22 14.6 WSW | 250 24.0 WSW | 246 76.8 59.5
9/2/26 - 1550 72.8 32.5 23 13.8 WSW | 249 22.8 WSW | 238 76.8 59.5
9/2/26 - 1540 72.9 28.7 19 14.8 WSW | 253 24.0 W | 262 76.8 59.5
9/2/26 - 1530 72.3 28.2 19 15.9 WSW | 244 23.9 WSW | 246 76.8 59.5
9/2/26 - 1520 73.0 28.2 19 15.7 WSW | 248 22.7 WSW | 241 76.8 59.5
9/2/26 - 1510 72.9 28.1 19 14.6 WSW | 252 22.6 WSW | 247 76.8 59.5
9/2/26 - 1500 73.2 27.7 18 12.0 WSW | 256 19.4 WNW | 287 76.8 59.5
9/2/26 - 1450 74.1 28.0 18 12.6 W | 259 30.4 WSW | 241 76.8 59.5
Max 74.1 38.1 42 15.9 - 30.4 - 76.8 61.3
Avg 64.7 23.7 22 7.7 - 13.0 - - -
Min 56.8 -9.2 5 0.7 - 2.1 - 61.6 56.4